createdAt,value
2018-03-17T00:01:55.073Z,3.50
2018-03-17T00:03:58.410Z,3.40
2018-03-17T00:06:00.986Z,3.40
2018-03-17T00:08:03.587Z,3.30
2018-03-17T00:10:06.187Z,3.30
2018-03-17T00:12:09.621Z,3.30
2018-03-17T00:14:12.213Z,3.30
2018-03-17T00:16:14.803Z,3.40
2018-03-17T00:18:17.403Z,3.30
2018-03-17T00:20:20.769Z,3.20
2018-03-17T00:22:23.378Z,3.10
2018-03-17T00:24:26.752Z,2.90
2018-03-17T00:26:29.352Z,2.90
2018-03-17T00:28:32.759Z,2.80
2018-03-17T00:30:35.351Z,2.80
2018-03-17T00:32:37.965Z,2.80
2018-03-17T00:34:40.545Z,2.90
2018-03-17T00:36:43.257Z,3.00
2018-03-17T00:38:45.837Z,2.80
2018-03-17T00:40:48.414Z,2.90
2018-03-17T00:42:51.039Z,2.90
2018-03-17T00:44:53.622Z,3.00
2018-03-17T00:46:56.218Z,2.90
2018-03-17T00:48:58.809Z,2.90
2018-03-17T00:51:01.523Z,2.90
2018-03-17T00:53:04.131Z,2.90
2018-03-17T00:55:07.486Z,2.80
2018-03-17T00:57:10.077Z,2.80
2018-03-17T00:59:12.706Z,2.80
2018-03-17T01:01:15.306Z,2.70
2018-03-17T01:03:18.673Z,2.60
2018-03-17T01:05:21.249Z,2.60
2018-03-17T01:07:23.859Z,2.50
2018-03-17T01:09:26.463Z,2.60
2018-03-17T01:11:29.856Z,2.60
2018-03-17T01:13:32.453Z,2.60
2018-03-17T01:15:35.099Z,2.70
2018-03-17T01:17:38.465Z,2.70
2018-03-17T01:19:41.086Z,2.70
2018-03-17T01:21:43.675Z,2.80
2018-03-17T01:23:46.305Z,2.80
2018-03-17T01:25:48.897Z,2.80
2018-03-17T01:27:52.277Z,2.80
2018-03-17T01:29:54.875Z,2.80
2018-03-17T01:31:58.341Z,2.70
2018-03-17T01:34:00.914Z,2.70
2018-03-17T01:36:03.513Z,2.80
2018-03-17T01:38:06.866Z,2.80
2018-03-17T01:40:09.497Z,2.80
2018-03-17T01:42:12.091Z,2.80
2018-03-17T01:44:14.680Z,2.80
2018-03-17T01:46:17.380Z,2.80
2018-03-17T01:48:19.987Z,2.80
2018-03-17T01:50:22.602Z,2.80
2018-03-17T01:52:25.190Z,2.70
2018-03-17T01:54:32.278Z,2.70
2018-03-17T01:56:35.036Z,2.60
2018-03-17T01:58:37.614Z,2.60
2018-03-17T02:00:40.198Z,2.70
2018-03-17T02:02:42.809Z,2.60
2018-03-17T02:04:45.493Z,2.60
2018-03-17T02:06:49.631Z,2.50
2018-03-17T02:08:52.226Z,2.50
2018-03-17T02:10:54.817Z,2.50
2018-03-17T02:12:58.177Z,2.40
2018-03-17T02:15:00.770Z,2.40
2018-03-17T02:17:03.643Z,2.40
2018-03-17T02:19:06.242Z,2.40
2018-03-17T02:21:08.852Z,2.40
2018-03-17T02:23:11.453Z,2.50
2018-03-17T02:25:14.030Z,2.60
2018-03-17T02:27:16.622Z,2.70
2018-03-17T02:29:19.199Z,2.70
2018-03-17T02:31:21.862Z,2.80
2018-03-17T02:33:25.208Z,2.90
2018-03-17T02:35:27.880Z,2.90
2018-03-17T02:37:30.473Z,2.80
2018-03-17T02:39:33.111Z,2.80
2018-03-17T02:41:36.500Z,2.80
2018-03-17T02:43:39.854Z,2.80
2018-03-17T02:45:42.437Z,2.80
2018-03-17T02:47:45.058Z,2.70
2018-03-17T02:49:47.651Z,2.70
2018-03-17T02:51:50.238Z,2.70
2018-03-17T02:53:52.958Z,2.80
2018-03-17T02:55:55.534Z,2.80
2018-03-17T02:57:58.125Z,2.80
2018-03-17T03:00:00.746Z,2.80
2018-03-17T03:02:03.331Z,2.80
2018-03-17T03:04:05.908Z,2.80
2018-03-17T03:06:08.504Z,2.90
2018-03-17T03:08:11.863Z,2.90
2018-03-17T03:10:14.461Z,2.90
2018-03-17T03:12:17.091Z,2.90
2018-03-17T03:14:19.696Z,2.90
2018-03-17T03:16:22.315Z,2.90
2018-03-17T03:18:25.672Z,2.90
2018-03-17T03:20:28.284Z,2.90
2018-03-17T03:22:30.889Z,3.00
2018-03-17T03:24:33.969Z,3.00
2018-03-17T03:26:36.573Z,3.00
2018-03-17T03:28:39.941Z,2.90
2018-03-17T03:30:42.563Z,2.90
2018-03-17T03:32:45.910Z,2.90
2018-03-17T03:34:48.505Z,2.80
2018-03-17T03:36:51.095Z,2.90
2018-03-17T03:38:53.706Z,2.90
2018-03-17T03:40:56.402Z,2.90
2018-03-17T03:42:59.000Z,2.90
2018-03-17T03:45:01.590Z,2.90
2018-03-17T03:47:04.726Z,2.90
2018-03-17T03:49:07.314Z,2.90
2018-03-17T03:51:09.918Z,2.90
2018-03-17T03:53:12.522Z,2.90
2018-03-17T03:55:15.865Z,2.90
2018-03-17T03:57:19.576Z,2.90
2018-03-17T03:59:22.627Z,2.80
2018-03-17T04:01:25.206Z,2.90
2018-03-17T04:03:27.825Z,3.00
2018-03-17T04:05:30.439Z,3.00
2018-03-17T04:07:33.022Z,3.00
2018-03-17T04:09:35.632Z,3.10
2018-03-17T04:11:38.251Z,3.10
2018-03-17T04:13:41.641Z,3.10
2018-03-17T04:15:45.010Z,3.20
2018-03-17T04:17:47.619Z,3.20
2018-03-17T04:19:50.221Z,3.30
2018-03-17T04:21:52.834Z,3.30
2018-03-17T04:23:55.421Z,3.40
2018-03-17T04:25:58.874Z,3.50
2018-03-17T04:28:01.527Z,3.50
2018-03-17T04:30:04.110Z,3.50
2018-03-17T04:32:06.735Z,3.60
2018-03-17T04:34:09.321Z,3.60
2018-03-17T04:36:12.983Z,3.60
2018-03-17T04:38:15.559Z,3.60
2018-03-17T04:40:18.210Z,3.60
2018-03-17T04:42:20.815Z,3.60
2018-03-17T04:44:23.397Z,3.60
2018-03-17T04:46:26.742Z,3.70
2018-03-17T04:48:29.345Z,3.70
2018-03-17T04:50:31.930Z,3.80
2018-03-17T04:52:34.542Z,3.90
2018-03-17T04:54:37.136Z,3.90
2018-03-17T04:56:39.727Z,3.90
2018-03-17T04:58:42.327Z,3.90
2018-03-17T05:00:44.921Z,4.00
2018-03-17T05:02:48.278Z,4.00
2018-03-17T05:04:50.945Z,4.00
2018-03-17T05:06:53.521Z,4.00
2018-03-17T05:08:56.136Z,4.00
2018-03-17T05:10:59.514Z,4.20
2018-03-17T05:13:02.117Z,4.20
2018-03-17T05:15:04.720Z,4.30
2018-03-17T05:17:07.314Z,4.20
2018-03-17T05:19:09.919Z,4.30
2018-03-17T05:21:12.537Z,4.30
2018-03-17T05:23:15.151Z,4.20
2018-03-17T05:25:17.815Z,4.20
2018-03-17T05:27:20.514Z,4.10
2018-03-17T05:29:23.114Z,4.00
2018-03-17T05:31:25.742Z,4.00
2018-03-17T05:33:29.110Z,4.00
2018-03-17T05:35:31.746Z,4.00
2018-03-17T05:37:34.328Z,4.00
2018-03-17T05:39:37.668Z,4.00
2018-03-17T05:41:40.277Z,4.00
2018-03-17T05:43:43.622Z,4.00
2018-03-17T05:45:46.206Z,3.90
2018-03-17T05:47:48.825Z,4.00
2018-03-17T05:49:52.180Z,3.90
2018-03-17T05:51:54.781Z,3.90
2018-03-17T05:53:57.381Z,3.90
2018-03-17T05:55:59.976Z,3.90
2018-03-17T05:58:02.602Z,3.80
2018-03-17T06:00:05.203Z,3.80
2018-03-17T06:02:07.795Z,3.80
2018-03-17T06:04:10.397Z,3.70
2018-03-17T06:06:12.978Z,3.60
2018-03-17T06:08:17.114Z,3.70
2018-03-17T06:10:20.492Z,3.80
2018-03-17T06:12:23.359Z,3.80
2018-03-17T06:14:26.284Z,3.70
2018-03-17T06:16:29.082Z,3.70
2018-03-17T06:18:31.673Z,3.60
2018-03-17T06:20:35.043Z,3.60
2018-03-17T06:22:37.625Z,3.60
2018-03-17T06:24:40.229Z,3.60
2018-03-17T06:26:42.826Z,3.60
2018-03-17T06:28:45.451Z,3.60
2018-03-17T06:30:48.116Z,3.50
2018-03-17T06:32:50.679Z,3.60
2018-03-17T06:34:53.285Z,3.60
2018-03-17T06:36:55.935Z,3.60
2018-03-17T06:38:58.533Z,3.60
2018-03-17T06:41:01.141Z,3.60
2018-03-17T06:43:03.799Z,3.60
2018-03-17T06:45:06.454Z,3.50
2018-03-17T06:47:09.034Z,3.40
2018-03-17T06:49:11.637Z,3.30
2018-03-17T06:51:14.250Z,3.20
2018-03-17T06:53:16.877Z,3.20
2018-03-17T06:55:19.503Z,3.10
2018-03-17T06:57:22.109Z,3.10
2018-03-17T06:59:24.697Z,3.10
2018-03-17T07:01:27.312Z,3.00
2018-03-17T07:03:30.808Z,3.00
2018-03-17T07:05:34.158Z,3.00
2018-03-17T07:07:36.762Z,3.00
2018-03-17T07:09:40.139Z,3.00
2018-03-17T07:11:42.771Z,3.00
2018-03-17T07:13:45.380Z,2.90
2018-03-17T07:15:48.274Z,2.90
2018-03-17T07:17:50.922Z,3.00
2018-03-17T07:19:53.543Z,3.00
2018-03-17T07:21:56.905Z,2.90
2018-03-17T07:23:59.570Z,2.90
2018-03-17T07:26:02.195Z,2.90
2018-03-17T07:28:05.554Z,3.00
2018-03-17T07:30:08.219Z,3.00
2018-03-17T07:32:10.812Z,3.10
2018-03-17T07:34:13.423Z,3.20
2018-03-17T07:36:16.011Z,3.10
2018-03-17T07:38:18.598Z,3.00
2018-03-17T07:40:21.973Z,3.00
2018-03-17T07:42:24.673Z,3.00
2018-03-17T07:44:27.541Z,3.10
2018-03-17T07:46:30.163Z,3.20
2018-03-17T07:48:32.767Z,3.20
2018-03-17T07:50:35.381Z,3.20
2018-03-17T07:52:38.019Z,3.20
2018-03-17T07:54:41.925Z,3.40
2018-03-17T07:56:44.561Z,3.40
2018-03-17T07:58:47.246Z,3.40
2018-03-17T08:00:50.602Z,3.70
2018-03-17T08:02:53.238Z,3.70
2018-03-17T08:04:55.856Z,3.80
2018-03-17T08:06:58.477Z,3.90
2018-03-17T08:09:01.846Z,3.80
2018-03-17T08:11:04.529Z,3.80
2018-03-17T08:13:07.156Z,3.80
2018-03-17T08:15:09.774Z,3.80
2018-03-17T08:17:12.749Z,3.80
2018-03-17T08:19:15.410Z,3.70
2018-03-17T08:21:18.014Z,3.70
2018-03-17T08:23:20.634Z,3.90
2018-03-17T08:25:23.316Z,4.00
2018-03-17T08:27:25.937Z,4.00
2018-03-17T08:29:28.522Z,3.90
2018-03-17T08:31:31.886Z,3.70
2018-03-17T08:33:35.369Z,3.80
2018-03-17T08:35:38.734Z,3.80
2018-03-17T08:37:41.333Z,3.80
2018-03-17T08:39:43.953Z,3.90
2018-03-17T08:41:47.400Z,3.90
2018-03-17T08:43:50.062Z,3.90
2018-03-17T08:45:52.743Z,3.90
2018-03-17T08:47:55.378Z,3.90
2018-03-17T08:52:06.849Z,4.00
2018-03-17T08:54:11.543Z,4.00
2018-03-17T08:56:14.665Z,4.10
2018-03-17T08:58:18.046Z,4.00
2018-03-17T09:00:20.681Z,4.00
2018-03-17T09:02:23.273Z,4.20
2018-03-17T09:04:25.940Z,4.20
2018-03-17T09:06:28.586Z,4.40
2018-03-17T09:08:31.183Z,4.40
2018-03-17T09:10:33.783Z,4.40
2018-03-17T09:12:36.378Z,4.50
2018-03-17T09:14:39.083Z,4.50
2018-03-17T09:16:43.315Z,4.50
2018-03-17T09:18:45.934Z,4.40
2018-03-17T09:20:48.574Z,4.40
2018-03-17T09:22:51.176Z,4.40
2018-03-17T09:24:53.756Z,4.40
2018-03-17T09:26:56.381Z,4.30
2018-03-17T09:28:58.979Z,4.20
2018-03-17T09:31:01.620Z,4.20
2018-03-17T09:33:04.229Z,4.10
2018-03-17T09:35:06.869Z,4.00
2018-03-17T09:37:09.479Z,3.80
2018-03-17T09:39:12.867Z,3.70
2018-03-17T09:41:15.456Z,3.60
2018-03-17T09:43:18.076Z,3.50
2018-03-17T09:45:21.437Z,3.50
2018-03-17T09:47:24.042Z,3.50
2018-03-17T09:49:27.462Z,3.30
2018-03-17T09:51:30.472Z,3.20
2018-03-17T09:53:33.078Z,3.30
2018-03-17T09:55:35.707Z,3.30
2018-03-17T09:57:38.330Z,3.30
2018-03-17T09:59:41.719Z,3.40
2018-03-17T10:01:45.091Z,3.50
2018-03-17T10:03:48.916Z,3.50
2018-03-17T10:05:52.310Z,3.60
2018-03-17T10:07:55.653Z,3.60
2018-03-17T10:09:58.303Z,3.60
2018-03-17T10:12:00.921Z,3.60
2018-03-17T10:14:04.330Z,3.50
2018-03-17T10:16:06.957Z,3.50
2018-03-17T10:18:09.598Z,3.60
2018-03-17T10:20:13.005Z,3.70
2018-03-17T10:22:15.612Z,3.70
2018-03-17T10:24:18.216Z,3.70
2018-03-17T10:26:20.808Z,3.70
2018-03-17T10:28:24.230Z,3.60
2018-03-17T10:30:26.825Z,3.60
2018-03-17T10:32:29.423Z,3.60
2018-03-17T10:34:32.041Z,3.60
2018-03-17T10:36:35.401Z,3.60
2018-03-17T10:38:38.030Z,3.60
2018-03-17T10:40:40.618Z,3.60
2018-03-17T10:42:43.212Z,3.70
2018-03-17T10:44:45.836Z,3.80
2018-03-17T10:46:48.421Z,3.80
2018-03-17T10:48:51.014Z,3.80
2018-03-17T10:50:53.637Z,3.70
2018-03-17T10:52:57.059Z,3.70
2018-03-17T10:54:59.669Z,3.70
2018-03-17T10:57:02.270Z,3.70
2018-03-17T10:59:04.869Z,3.60
2018-03-17T11:01:15.616Z,3.50
2018-03-17T11:03:18.976Z,3.40
2018-03-17T11:05:22.366Z,3.40
2018-03-17T11:07:25.006Z,3.40
2018-03-17T11:09:27.605Z,3.50
2018-03-17T11:11:31.065Z,3.50
2018-03-17T11:13:34.018Z,3.50
2018-03-17T11:15:36.607Z,3.50
2018-03-17T11:17:39.974Z,3.40
2018-03-17T11:19:42.581Z,3.40
2018-03-17T11:21:45.961Z,3.30
2018-03-17T11:23:49.343Z,3.30
2018-03-17T11:25:52.132Z,3.30
2018-03-17T11:27:54.746Z,3.20
2018-03-17T11:29:57.380Z,3.20
2018-03-17T11:32:00.022Z,3.30
2018-03-17T11:34:02.653Z,3.20
2018-03-17T11:36:05.262Z,3.20
2018-03-17T11:38:07.851Z,3.10
2018-03-17T11:40:10.458Z,3.20
2018-03-17T11:42:13.919Z,3.30
2018-03-17T11:44:16.571Z,3.20
2018-03-17T11:46:19.203Z,3.30
2018-03-17T11:48:23.781Z,3.20
2018-03-17T11:50:27.239Z,3.30
2018-03-17T11:52:29.963Z,3.30
2018-03-17T11:54:32.925Z,3.30
2018-03-17T11:56:35.525Z,3.20
2018-03-17T11:58:38.177Z,3.20
2018-03-17T12:00:43.553Z,3.20
2018-03-17T12:02:46.141Z,3.30
2018-03-17T12:04:49.532Z,3.30
2018-03-17T12:06:52.915Z,3.20
2018-03-17T12:08:56.305Z,3.20
2018-03-17T12:10:58.926Z,3.20
2018-03-17T12:13:01.539Z,3.20
2018-03-17T12:15:04.909Z,3.20
2018-03-17T12:17:07.534Z,3.20
2018-03-17T12:19:10.914Z,3.20
2018-03-17T12:21:13.890Z,3.20
2018-03-17T12:23:16.509Z,3.10
2018-03-17T12:25:19.131Z,3.20
2018-03-17T12:27:21.736Z,3.30
2018-03-17T12:29:25.127Z,3.20
2018-03-17T12:31:28.521Z,3.20
2018-03-17T12:33:31.895Z,3.10
2018-03-17T12:35:35.494Z,3.10
2018-03-17T12:37:38.126Z,3.00
2018-03-17T12:39:40.799Z,3.00
2018-03-17T12:41:43.395Z,2.90
2018-03-17T12:43:46.024Z,2.80
2018-03-17T12:45:49.394Z,3.00
2018-03-17T12:47:53.107Z,3.00
2018-03-17T12:49:56.476Z,2.90
2018-03-17T12:51:59.116Z,2.90
2018-03-17T12:54:01.848Z,2.90
2018-03-17T12:56:05.217Z,2.90
2018-03-17T12:58:07.825Z,2.90
2018-03-17T13:00:11.185Z,2.90
2018-03-17T13:02:13.787Z,2.90
2018-03-17T13:04:17.185Z,2.90
2018-03-17T13:06:19.795Z,2.90
2018-03-17T13:08:22.407Z,3.00
2018-03-17T13:10:25.067Z,3.10
2018-03-17T13:12:27.654Z,3.10
2018-03-17T13:14:30.272Z,3.00
2018-03-17T13:16:32.956Z,3.00
2018-03-17T13:18:35.659Z,3.00
2018-03-17T13:20:38.269Z,3.00
2018-03-17T13:22:53.419Z,2.90
2018-03-17T13:24:56.035Z,2.90
2018-03-17T13:27:10.280Z,2.90
2018-03-17T13:29:12.887Z,2.90
2018-03-17T13:31:15.526Z,2.90
2018-03-17T13:33:18.914Z,2.90
2018-03-17T13:35:22.307Z,2.90
2018-03-17T13:37:37.682Z,2.90
2018-03-17T13:39:41.075Z,3.00
2018-03-17T13:41:44.472Z,2.90
2018-03-17T13:43:47.077Z,2.80
2018-03-17T13:45:49.719Z,2.90
2018-03-17T13:47:53.101Z,3.00
2018-03-17T13:49:56.491Z,3.00
2018-03-17T13:51:59.904Z,2.90
2018-03-17T13:54:02.500Z,2.90
2018-03-17T13:56:05.112Z,2.90
2018-03-17T13:58:07.702Z,2.80
2018-03-17T14:00:11.074Z,2.90
2018-03-17T14:02:13.689Z,2.90
2018-03-17T14:04:17.074Z,2.80
2018-03-17T14:06:20.526Z,2.80
2018-03-17T14:08:23.137Z,2.80
2018-03-17T14:10:26.514Z,2.90
2018-03-17T14:12:29.144Z,2.80
2018-03-17T14:14:31.750Z,2.80
2018-03-17T14:16:34.347Z,2.90
2018-03-17T14:18:37.726Z,2.80
2018-03-17T14:20:40.331Z,2.80
2018-03-17T14:25:28.650Z,2.90
2018-03-17T14:27:31.277Z,2.80
2018-03-17T14:29:34.691Z,2.60
2018-03-17T14:31:37.327Z,2.60
2018-03-17T14:33:39.953Z,2.70
2018-03-17T14:35:42.630Z,2.70
2018-03-17T14:37:45.235Z,2.70
2018-03-17T14:39:47.901Z,2.80
2018-03-17T14:41:50.503Z,2.80
2018-03-17T14:43:53.148Z,2.70
2018-03-17T14:45:56.535Z,2.60
2018-03-17T14:47:59.271Z,2.60
2018-03-17T14:50:02.034Z,2.40
2018-03-17T14:52:04.676Z,2.50
2018-03-17T14:54:07.324Z,2.60
2018-03-17T14:56:09.976Z,2.60
2018-03-17T14:58:13.368Z,2.50
2018-03-17T15:00:16.778Z,2.50
2018-03-17T15:02:19.423Z,2.40
2018-03-17T15:04:22.149Z,2.30
2018-03-17T15:06:24.756Z,2.30
2018-03-17T15:08:27.414Z,2.30
2018-03-17T15:10:30.088Z,2.30
2018-03-17T15:12:32.738Z,2.40
2018-03-17T15:14:35.454Z,2.40
2018-03-17T15:16:38.071Z,2.20
2018-03-17T15:18:40.679Z,2.40
2018-03-17T15:20:43.310Z,2.30
2018-03-17T15:22:46.726Z,2.20
2018-03-17T15:24:49.385Z,2.20
2018-03-17T15:26:52.827Z,2.30
2018-03-17T15:28:56.966Z,2.40
2018-03-17T15:30:59.610Z,2.40
2018-03-17T15:33:02.258Z,2.50
2018-03-17T15:35:04.878Z,2.50
2018-03-17T15:37:07.517Z,2.50
2018-03-17T15:39:10.902Z,2.60
2018-03-17T15:41:13.562Z,2.60
2018-03-17T15:43:16.959Z,2.40
2018-03-17T15:45:20.382Z,2.50
2018-03-17T15:47:23.019Z,2.50
2018-03-17T15:49:26.414Z,2.50
2018-03-17T15:51:29.827Z,2.40
2018-03-17T15:53:32.693Z,2.40
2018-03-17T15:55:36.134Z,2.40
2018-03-17T15:57:38.763Z,2.40
2018-03-17T15:59:42.174Z,2.40
2018-03-17T16:01:44.834Z,2.30
2018-03-17T16:03:47.462Z,2.20
2018-03-17T16:05:50.131Z,2.10
2018-03-17T16:07:52.848Z,2.10
2018-03-17T16:09:56.299Z,2.10
2018-03-17T16:11:58.941Z,2.10
2018-03-17T16:14:01.617Z,2.10
2018-03-17T16:16:04.309Z,2.10
2018-03-17T16:18:06.921Z,2.00
2018-03-17T16:20:09.548Z,2.10
2018-03-17T16:22:13.022Z,2.10
2018-03-17T16:24:16.451Z,2.00
2018-03-17T16:26:19.099Z,2.00
2018-03-17T16:28:22.587Z,1.90
2018-03-17T16:30:26.052Z,1.80
2018-03-17T16:32:28.688Z,1.80
2018-03-17T16:34:31.309Z,1.70
2018-03-17T16:36:34.003Z,1.80
2018-03-17T16:38:37.406Z,1.70
2018-03-17T16:40:41.468Z,1.70
2018-03-17T16:42:44.940Z,1.80
2018-03-17T16:44:47.607Z,1.80
2018-03-17T16:46:50.306Z,1.90
2018-03-17T16:48:52.934Z,1.90
2018-03-17T16:50:56.401Z,1.90
2018-03-17T16:52:59.832Z,1.90
2018-03-17T16:55:02.501Z,1.80
2018-03-17T16:57:05.961Z,1.70
2018-03-17T16:59:08.606Z,1.70
2018-03-17T17:01:11.249Z,1.70
2018-03-17T17:03:14.817Z,1.60
2018-03-17T17:05:17.464Z,1.60
2018-03-17T17:07:20.254Z,1.40
2018-03-17T17:09:22.913Z,1.50
2018-03-17T17:11:25.580Z,1.50
2018-03-17T17:13:28.191Z,1.60
2018-03-17T17:15:30.999Z,1.50
2018-03-17T17:17:45.685Z,1.40
2018-03-17T17:19:48.949Z,1.40
2018-03-17T17:21:52.398Z,1.40
2018-03-17T17:23:55.087Z,1.40
2018-03-17T17:25:57.770Z,1.40
2018-03-17T17:28:00.423Z,1.40
2018-03-17T17:30:03.068Z,1.40
2018-03-17T17:32:05.744Z,1.40
2018-03-17T17:34:08.398Z,1.30
2018-03-17T17:36:11.825Z,1.30
2018-03-17T17:38:14.618Z,1.30
2018-03-17T17:40:17.263Z,1.30
2018-03-17T17:42:19.903Z,1.30
2018-03-17T17:44:22.543Z,1.30
2018-03-17T17:46:25.159Z,1.20
2018-03-17T17:48:28.691Z,1.10
2018-03-17T17:50:31.369Z,1.10
2018-03-17T17:52:34.005Z,1.20
2018-03-17T17:54:36.654Z,1.10
2018-03-17T17:56:39.430Z,1.00
2018-03-17T17:58:42.323Z,1.00
2018-03-17T18:00:46.028Z,0.70
2018-03-17T18:02:48.730Z,0.70
2018-03-17T18:04:52.133Z,0.70
2018-03-17T18:06:55.534Z,0.80
2018-03-17T18:08:58.501Z,0.80
2018-03-17T18:11:01.819Z,0.80
2018-03-17T18:13:04.538Z,0.90
2018-03-17T18:15:07.307Z,0.90
2018-03-17T18:17:09.985Z,1.00
2018-03-17T18:19:12.647Z,1.00
2018-03-17T18:21:15.366Z,0.80
2018-03-17T18:23:18.904Z,0.60
2018-03-17T18:25:21.665Z,0.60
2018-03-17T18:27:25.075Z,0.50
2018-03-17T18:29:27.737Z,0.50
2018-03-17T18:31:30.418Z,0.50
2018-03-17T18:33:33.060Z,0.50
2018-03-17T18:35:35.783Z,0.50
2018-03-17T18:37:38.509Z,0.30
2018-03-17T18:39:41.235Z,0.20
2018-03-17T18:41:44.086Z,0.20
2018-03-17T18:43:46.687Z,0.20
2018-03-17T18:45:49.361Z,0.20
2018-03-17T18:47:52.011Z,0.10
2018-03-17T18:49:55.457Z,0.10
2018-03-17T18:51:58.174Z,0.10
2018-03-17T18:54:00.831Z,0.10
2018-03-17T18:56:03.491Z,0.10
2018-03-17T18:58:06.169Z,0.10
2018-03-17T19:00:08.818Z,0.10
2018-03-17T19:02:11.583Z,0.10
2018-03-17T19:04:15.026Z,0.10
2018-03-17T19:06:36.293Z,0.20
2018-03-17T19:08:40.298Z,0.20
2018-03-17T19:10:43.073Z,0.10
2018-03-17T19:12:46.505Z,0.10
2018-03-17T19:14:49.334Z,0.00
2018-03-17T19:16:53.029Z,0.00
2018-03-17T19:18:56.687Z,0.00
2018-03-17T19:20:59.568Z,0.00
2018-03-17T19:23:15.325Z,-0.20
2018-03-17T19:25:19.212Z,-0.10
2018-03-17T19:27:21.894Z,-0.10
2018-03-17T19:29:24.550Z,-0.20
2018-03-17T19:31:27.975Z,-0.20
2018-03-17T19:33:30.634Z,-0.20
2018-03-17T19:35:33.415Z,-0.20
2018-03-17T19:37:36.071Z,-0.20
2018-03-17T19:39:38.732Z,-0.30
2018-03-17T19:41:42.250Z,-0.20
2018-03-17T19:43:45.755Z,-0.20
2018-03-17T19:45:49.230Z,-0.30
2018-03-17T19:47:51.937Z,-0.30
2018-03-17T19:49:55.375Z,-0.20
2018-03-17T19:51:58.034Z,-0.30
2018-03-17T19:54:00.717Z,-0.20
2018-03-17T19:56:03.363Z,-0.10
2018-03-17T19:58:06.087Z,-0.10
2018-03-17T20:00:08.899Z,-0.10
2018-03-17T20:02:11.567Z,0.00
2018-03-17T20:04:14.264Z,-0.20
2018-03-17T20:06:16.945Z,-0.20
2018-03-17T20:08:19.653Z,-0.20
2018-03-17T20:10:22.351Z,-0.20
2018-03-17T20:12:25.071Z,-0.20
2018-03-17T20:14:27.819Z,-0.40
2018-03-17T20:16:30.483Z,-0.50
2018-03-17T20:18:33.193Z,-0.60
2018-03-17T20:20:36.729Z,-0.50
2018-03-17T20:22:39.423Z,-0.50
2018-03-17T20:24:42.143Z,-0.40
2018-03-17T20:26:44.938Z,-0.40
2018-03-17T20:28:47.757Z,-0.50
2018-03-17T20:30:50.476Z,-0.50
2018-03-17T20:32:54.047Z,-0.40
2018-03-17T20:34:56.692Z,-0.40
2018-03-17T20:36:59.415Z,-0.40
2018-03-17T20:39:02.140Z,-0.40
2018-03-17T20:41:04.790Z,-0.30
2018-03-17T20:43:07.586Z,-0.30
2018-03-17T20:45:10.227Z,-0.30
2018-03-17T20:47:13.039Z,-0.40
2018-03-17T20:49:15.780Z,-0.40
2018-03-17T20:51:18.535Z,-0.40
2018-03-17T20:53:21.318Z,-0.50
2018-03-17T20:55:24.023Z,-0.40
2018-03-17T20:57:27.481Z,-0.40
2018-03-17T20:59:30.151Z,-0.50
2018-03-17T21:01:32.808Z,-0.50
2018-03-17T21:03:37.284Z,-0.50
2018-03-17T21:05:41.240Z,-0.50
2018-03-17T21:07:43.955Z,-0.50
2018-03-17T21:09:47.277Z,-0.50
2018-03-17T21:11:50.060Z,-0.40
2018-03-17T21:13:52.816Z,-0.50
2018-03-17T21:15:55.558Z,-0.60
2018-03-17T21:17:58.269Z,-0.50
2018-03-17T21:20:01.135Z,-0.50
2018-03-17T21:22:04.119Z,-0.50
2018-03-17T21:24:06.784Z,-0.50
2018-03-17T21:26:10.980Z,-0.60
2018-03-17T21:28:13.787Z,-0.60
2018-03-17T21:30:16.768Z,-0.50
2018-03-17T21:32:20.269Z,-0.50
2018-03-17T21:34:23.105Z,-0.50
2018-03-17T21:36:25.883Z,-0.60
2018-03-17T21:38:28.739Z,-0.70
2018-03-17T21:40:32.179Z,-0.80
2018-03-17T21:42:34.976Z,-0.80
2018-03-17T21:44:37.644Z,-0.80
2018-03-17T21:46:40.382Z,-0.80
2018-03-17T21:48:43.146Z,-0.90
2018-03-17T21:50:46.665Z,-0.90
2018-03-17T21:52:49.351Z,-0.90
2018-03-17T21:54:52.134Z,-0.80
2018-03-17T21:56:54.847Z,-0.90
2018-03-17T21:58:57.710Z,-1.00
2018-03-17T22:01:00.518Z,-1.10
2018-03-17T22:03:03.954Z,-1.00
2018-03-17T22:05:06.601Z,-1.00
2018-03-17T22:07:09.330Z,-1.00
2018-03-17T22:09:12.017Z,-1.00
2018-03-17T22:11:14.712Z,-0.90
2018-03-17T22:13:17.386Z,-1.00
2018-03-17T22:15:20.022Z,-0.90
2018-03-17T22:17:22.747Z,-1.00
2018-03-17T22:19:25.543Z,-1.10
2018-03-17T22:21:28.290Z,-1.00
2018-03-17T22:23:30.921Z,-1.00
2018-03-17T22:25:33.577Z,-0.90
2018-03-17T22:27:36.269Z,-0.90
2018-03-17T22:29:38.939Z,-1.00
2018-03-17T22:31:41.847Z,-0.90
2018-03-17T22:33:44.562Z,-1.00
2018-03-17T22:35:48.280Z,-1.10
2018-03-17T22:37:51.035Z,-1.10
2018-03-17T22:39:54.636Z,-1.00
2018-03-17T22:41:57.277Z,-1.00
2018-03-17T22:44:00.017Z,-1.00
2018-03-17T22:46:03.648Z,-1.10
2018-03-17T22:48:06.371Z,-1.20
2018-03-17T22:50:09.844Z,-1.10
2018-03-17T22:52:12.507Z,-1.10
2018-03-17T22:54:15.412Z,-1.00
2018-03-17T22:56:18.159Z,-1.00
2018-03-17T22:58:20.946Z,-0.90
2018-03-17T23:00:23.676Z,-1.00
2018-03-17T23:02:26.384Z,-0.90
2018-03-17T23:04:29.321Z,-0.90
2018-03-17T23:06:32.120Z,-0.90
2018-03-17T23:08:34.827Z,-1.00
2018-03-17T23:10:37.616Z,-1.10
2018-03-17T23:12:40.282Z,-1.10
2018-03-17T23:14:43.049Z,-1.10
2018-03-17T23:16:46.030Z,-1.10
2018-03-17T23:18:48.772Z,-1.10
2018-03-17T23:20:51.491Z,-1.00
2018-03-17T23:22:54.295Z,-0.90
2018-03-17T23:24:57.034Z,-0.80
2018-03-17T23:26:59.729Z,-0.80
2018-03-17T23:29:02.438Z,-0.90
2018-03-17T23:31:05.146Z,-0.90
2018-03-17T23:33:07.855Z,-1.10
2018-03-17T23:35:10.635Z,-1.10
2018-03-17T23:37:13.409Z,-1.10
2018-03-17T23:39:17.086Z,-1.00
2018-03-17T23:41:19.928Z,-1.10
2018-03-17T23:43:23.487Z,-0.90
2018-03-17T23:45:26.233Z,-0.90
2018-03-17T23:47:28.902Z,-0.90
2018-03-17T23:49:31.697Z,-0.80
2018-03-17T23:51:34.506Z,-0.80
2018-03-17T23:53:37.180Z,-0.90
2018-03-17T23:55:40.064Z,-0.90
2018-03-17T23:57:42.842Z,-1.00
2018-03-17T23:59:45.687Z,-1.00
